Time;durP1;ratioP1;P1;durP2;ratioP2;P2;SDS_P1;SDS_P2;PMS_P1;PMS_P2;Temp;Humidity;BMP_temperature;BMP_pressure;BME280_temperature;BME280_humidity;BME280_pressure;Samples;Min_cycle;Max_cycle;Signal;HPM_P1;HPM_P2
2024/02/25 00:00:17;;;;;;;13.75;4.45;;;0.90;99.90;;;;;;5095789;28;20097;-85
2024/02/25 00:02:43;;;;;;;11.38;6.05;;;0.80;99.90;;;;;;5079294;28;20094;-85
2024/02/25 00:05:10;;;;;;;12.15;4.57;;;0.80;99.90;;;;;;5089797;28;20016;-87
2024/02/25 00:07:36;;;;;;;9.33;3.43;;;0.80;99.90;;;;;;5095701;28;20536;-90
2024/02/25 00:10:03;;;;;;;10.13;5.53;;;0.80;99.90;;;;;;5079341;28;20397;-88
2024/02/25 00:12:29;;;;;;;8.57;4.95;;;0.80;99.90;;;;;;5095922;28;20031;-89
2024/02/25 00:14:55;;;;;;;10.80;6.95;;;0.70;99.90;;;;;;5094190;28;20036;-91
2024/02/25 00:17:20;;;;;;;9.82;5.20;;;0.80;99.90;;;;;;5092483;28;20048;-91
2024/02/25 00:19:46;;;;;;;11.55;6.07;;;0.80;99.90;;;;;;5101632;28;20032;-90
2024/02/25 00:22:12;;;;;;;8.27;4.35;;;0.80;99.90;;;;;;5104509;28;20047;-90
2024/02/25 00:24:41;;;;;;;10.77;5.15;;;0.80;99.90;;;;;;5105645;28;20012;-92
2024/02/25 00:27:07;;;;;;;12.70;5.50;;;0.70;99.90;;;;;;5096811;28;20055;-91
2024/02/25 00:29:32;;;;;;;9.13;6.50;;;0.80;99.90;;;;;;5088504;28;20465;-88
2024/02/25 00:31:58;;;;;;;10.75;6.47;;;0.90;99.90;;;;;;5092568;28;20036;-90
2024/02/25 00:34:28;;;;;;;12.05;6.72;;;0.90;99.90;;;;;;5079151;28;20024;-91
2024/02/25 00:36:54;;;;;;;8.75;5.63;;;0.90;99.90;;;;;;5088121;28;20015;-88
2024/02/25 00:39:21;;;;;;;7.40;4.07;;;0.80;99.90;;;;;;5101307;28;20020;-90
2024/02/25 00:41:51;;;;;;;11.40;5.10;;;0.70;99.90;;;;;;5106431;28;20008;-90
2024/02/25 00:44:17;;;;;;;11.88;5.35;;;0.70;99.90;;;;;;5100347;28;20079;-90
2024/02/25 00:46:43;;;;;;;14.13;6.95;;;0.60;99.90;;;;;;5099001;28;20354;-89
2024/02/25 00:49:09;;;;;;;9.73;5.95;;;0.70;99.90;;;;;;5096931;28;20036;-91
2024/02/25 00:51:34;;;;;;;15.15;6.20;;;0.60;99.90;;;;;;5105973;28;20034;-89
2024/02/25 00:54:00;;;;;;;8.00;5.32;;;0.60;99.90;;;;;;5103349;28;20041;-89
2024/02/25 00:56:26;;;;;;;13.85;6.43;;;0.60;99.90;;;;;;5104656;28;20012;-87
2024/02/25 00:58:52;;;;;;;12.73;5.70;;;0.60;99.90;;;;;;5090502;28;20071;-89
2024/02/25 01:01:18;;;;;;;11.98;5.70;;;0.60;99.90;;;;;;5103757;28;20062;-91
2024/02/25 01:03:44;;;;;;;7.63;5.13;;;0.60;99.90;;;;;;5115710;28;20032;-88
2024/02/25 01:06:11;;;;;;;13.23;6.10;;;0.70;99.90;;;;;;5106405;28;20059;-89
2024/02/25 01:08:39;;;;;;;11.40;5.43;;;0.70;99.90;;;;;;5096091;28;20044;-89
2024/02/25 01:11:10;;;;;;;9.75;4.93;;;0.70;99.90;;;;;;5101635;28;20050;-90
2024/02/25 01:13:36;;;;;;;7.47;5.05;;;0.70;99.90;;;;;;5114687;28;20001;-91
2024/02/25 01:16:02;;;;;;;7.95;5.88;;;0.70;99.90;;;;;;5100460;28;20036;-89
2024/02/25 01:18:35;;;;;;;10.95;5.35;;;0.70;99.90;;;;;;5097561;28;20440;-91
2024/02/25 01:21:01;;;;;;;12.10;6.07;;;0.70;99.90;;;;;;5097549;28;20023;-91
2024/02/25 01:23:27;;;;;;;10.68;6.28;;;0.60;99.90;;;;;;5104362;28;20020;-89
2024/02/25 01:25:53;;;;;;;11.27;5.28;;;0.70;99.90;;;;;;5112201;28;20020;-91
2024/02/25 01:28:19;;;;;;;12.88;7.72;;;0.70;99.90;;;;;;5110271;28;20032;-90
2024/02/25 01:30:47;;;;;;;10.05;6.25;;;0.80;99.90;;;;;;5103899;28;20028;-90
2024/02/25 01:33:13;;;;;;;;;;;0.70;99.90;;;;;;5108687;28;20031;-91
2024/02/25 01:35:42;;;;;;;15.10;8.77;;;0.70;99.90;;;;;;5101076;28;19919;-90
2024/02/25 01:38:08;;;;;;;10.80;5.60;;;0.70;99.90;;;;;;5098275;28;20538;-90
2024/02/25 01:40:35;;;;;;;12.30;4.80;;;0.70;99.90;;;;;;5105438;28;20032;-91
2024/02/25 01:43:11;;;;;;;8.02;5.32;;;0.70;99.90;;;;;;5088980;28;20033;-92
2024/02/25 01:45:38;;;;;;;8.00;4.43;;;0.70;99.90;;;;;;5090693;28;20028;-90
2024/02/25 01:48:07;;;;;;;12.23;6.13;;;0.60;99.90;;;;;;5099812;28;20020;-92
2024/02/25 01:50:34;;;;;;;7.75;4.78;;;0.60;99.90;;;;;;5101170;28;20032;-93
2024/02/25 01:53:01;;;;;;;8.90;5.93;;;0.60;99.90;;;;;;5111505;28;20053;-91
2024/02/25 01:55:34;;;;;;;11.68;6.18;;;0.60;99.90;;;;;;5104558;28;20125;-90
2024/02/25 01:58:02;;;;;;;6.55;4.18;;;0.50;99.90;;;;;;5100542;28;20024;-89
2024/02/25 02:00:30;;;;;;;9.23;5.82;;;0.50;99.90;;;;;;5105493;28;20028;-90
2024/02/25 02:02:59;;;;;;;8.27;4.97;;;0.50;99.90;;;;;;5107015;28;20024;-90
2024/02/25 02:05:25;;;;;;;8.38;4.90;;;0.60;99.90;;;;;;5091866;28;20081;-88
2024/02/25 02:07:52;;;;;;;9.18;6.35;;;0.50;99.90;;;;;;5095686;28;20079;-92
2024/02/25 02:10:18;;;;;;;7.45;4.63;;;0.50;99.90;;;;;;5099719;28;20128;-91
2024/02/25 02:12:47;;;;;;;9.13;5.10;;;0.50;99.90;;;;;;5088460;28;20477;-91
2024/02/25 02:15:14;;;;;;;14.10;6.00;;;0.50;99.90;;;;;;5091598;28;20576;-91
2024/02/25 02:17:41;;;;;;;15.05;6.88;;;0.50;99.90;;;;;;5092652;28;20024;-93
2024/02/25 02:20:20;;;;;;;;;;;0.50;99.90;;;;;;5106563;28;20062;-89
2024/02/25 02:22:47;;;;;;;6.95;4.55;;;0.50;99.90;;;;;;5110482;28;19967;-88
2024/02/25 02:25:16;;;;;;;8.35;5.22;;;0.50;99.90;;;;;;5119616;28;20016;-91
2024/02/25 02:27:43;;;;;;;11.30;4.97;;;0.50;99.90;;;;;;5111895;28;20453;-91
2024/02/25 02:30:10;;;;;;;10.30;6.60;;;0.40;99.90;;;;;;5116997;28;20015;-89
2024/02/25 02:32:37;;;;;;;8.88;5.32;;;0.50;99.90;;;;;;5118390;28;20070;-91
2024/02/25 02:35:04;;;;;;;9.23;5.38;;;0.40;99.90;;;;;;5105016;28;20023;-94
2024/02/25 02:37:32;;;;;;;9.43;5.25;;;0.40;99.90;;;;;;5098065;28;20044;-91
2024/02/25 02:39:58;;;;;;;17.38;5.88;;;0.50;99.90;;;;;;5095346;28;20020;-89
2024/02/25 02:42:24;;;;;;;7.90;5.43;;;0.40;99.90;;;;;;5089033;28;20024;-90
2024/02/25 02:44:50;;;;;;;10.38;6.03;;;0.40;99.90;;;;;;5095494;28;20028;-92
2024/02/25 02:47:18;;;;;;;12.48;7.00;;;0.40;99.90;;;;;;5085644;28;20028;-92
2024/02/25 02:49:44;;;;;;;10.77;7.07;;;0.40;99.90;;;;;;5097343;28;20036;-88
2024/02/25 02:52:10;;;;;;;10.88;5.75;;;0.40;99.90;;;;;;5099550;28;20052;-89
2024/02/25 02:54:37;;;;;;;9.40;5.43;;;0.40;99.90;;;;;;5099500;28;20032;-87
2024/02/25 02:57:03;;;;;;;5.82;4.40;;;0.40;99.90;;;;;;5091529;28;20044;-89
2024/02/25 02:59:28;;;;;;;15.00;7.20;;;0.40;99.90;;;;;;5106356;28;20073;-88
2024/02/25 03:01:54;;;;;;;12.50;5.00;;;0.40;99.90;;;;;;5094171;28;20016;-91
2024/02/25 03:04:20;;;;;;;8.98;5.43;;;0.40;99.90;;;;;;5095037;28;20036;-90
2024/02/25 03:06:46;;;;;;;14.90;5.88;;;0.40;99.90;;;;;;5094480;28;20023;-89
2024/02/25 03:09:15;;;;;;;8.82;5.32;;;0.40;99.90;;;;;;5084517;28;20044;-91
2024/02/25 03:11:41;;;;;;;8.77;5.40;;;0.40;99.90;;;;;;5096487;28;20099;-87
2024/02/25 03:14:07;;;;;;;7.20;4.57;;;0.40;99.90;;;;;;5094359;28;20042;-92
2024/02/25 03:16:33;;;;;;;13.35;6.20;;;0.40;99.90;;;;;;5096328;28;20067;-91
2024/02/25 03:18:59;;;;;;;9.43;5.40;;;0.30;99.90;;;;;;5091050;28;20016;-91
2024/02/25 03:21:25;;;;;;;12.02;7.80;;;0.40;99.90;;;;;;5095356;28;20111;-91
2024/02/25 03:23:51;;;;;;;14.13;6.60;;;0.40;99.90;;;;;;5097960;28;20030;-90
2024/02/25 03:26:18;;;;;;;13.07;5.95;;;0.30;99.90;;;;;;5096525;28;20111;-90
2024/02/25 03:28:44;;;;;;;14.00;6.80;;;0.30;99.90;;;;;;5096065;28;20047;-91
2024/02/25 03:31:10;;;;;;;8.07;5.00;;;0.30;99.90;;;;;;5096182;28;20056;-90
2024/02/25 03:33:36;;;;;;;10.73;6.88;;;0.30;99.90;;;;;;5103191;28;20057;-89
2024/02/25 03:36:02;;;;;;;10.88;6.82;;;0.30;99.90;;;;;;5094629;28;20040;-88
2024/02/25 03:38:28;;;;;;;12.88;7.88;;;0.30;99.90;;;;;;5098624;28;20036;-90
2024/02/25 03:40:54;;;;;;;10.77;7.30;;;0.30;99.90;;;;;;5088903;28;20032;-91
2024/02/25 03:43:20;;;;;;;12.48;6.93;;;0.30;99.90;;;;;;5094951;28;20028;-88
2024/02/25 03:45:46;;;;;;;9.68;6.43;;;0.30;99.90;;;;;;5084416;28;20031;-89
2024/02/25 03:48:14;;;;;;;10.18;5.40;;;0.30;99.90;;;;;;5076284;28;20458;-92
2024/02/25 03:50:41;;;;;;;15.30;7.05;;;0.30;99.90;;;;;;5076877;28;20390;-92
2024/02/25 03:53:07;;;;;;;13.07;7.13;;;0.30;99.90;;;;;;5096787;28;20028;-89
2024/02/25 03:55:33;;;;;;;15.20;7.13;;;0.30;99.90;;;;;;5109199;28;20028;-89
2024/02/25 03:57:59;;;;;;;13.70;7.07;;;0.30;99.90;;;;;;5103659;28;20090;-90
2024/02/25 04:00:26;;;;;;;10.27;5.57;;;0.30;99.90;;;;;;5088698;28;20099;-89
2024/02/25 04:02:52;;;;;;;9.93;5.28;;;0.30;99.90;;;;;;5104044;28;20078;-91
2024/02/25 04:05:18;;;;;;;8.43;5.80;;;0.30;99.90;;;;;;5100712;28;20017;-89
2024/02/25 04:07:45;;;;;;;16.02;6.60;;;0.30;99.90;;;;;;5108908;28;20048;-90
2024/02/25 04:10:12;;;;;;;11.27;6.45;;;0.40;99.90;;;;;;5095862;28;20032;-90
2024/02/25 04:12:39;;;;;;;12.82;7.30;;;0.30;99.90;;;;;;5101237;28;20050;-88
2024/02/25 04:15:06;;;;;;;15.02;5.68;;;0.40;99.90;;;;;;5106828;28;20027;-91
2024/02/25 04:17:33;;;;;;;18.48;7.13;;;0.40;99.90;;;;;;5078110;28;20393;-89
2024/02/25 04:19:59;;;;;;;;;;;0.40;99.90;;;;;;5102074;28;20127;-90
2024/02/25 04:22:27;;;;;;;7.57;5.03;;;0.40;99.90;;;;;;5109068;28;19975;-88
2024/02/25 04:24:53;;;;;;;10.93;6.55;;;0.30;99.90;;;;;;5091419;28;20032;-91
2024/02/25 04:27:19;;;;;;;10.65;5.82;;;0.30;99.90;;;;;;5091049;28;20033;-89
2024/02/25 04:29:45;;;;;;;9.95;5.80;;;0.30;99.90;;;;;;5090400;28;20036;-91
2024/02/25 04:32:12;;;;;;;9.52;6.75;;;0.30;99.90;;;;;;5103371;28;20028;-90
2024/02/25 04:34:38;;;;;;;13.43;6.97;;;0.30;99.90;;;;;;5082966;28;20020;-92
2024/02/25 04:37:04;;;;;;;10.45;6.68;;;0.30;99.90;;;;;;5084785;28;20039;-91
2024/02/25 04:39:30;;;;;;;12.65;7.78;;;0.30;99.90;;;;;;5100487;28;20028;-91
2024/02/25 04:41:56;;;;;;;10.60;6.90;;;0.30;99.90;;;;;;5101054;28;20051;-90
2024/02/25 04:44:23;;;;;;;14.35;8.10;;;0.30;99.90;;;;;;5111227;28;20024;-91
2024/02/25 04:46:49;;;;;;;14.60;8.35;;;0.30;99.90;;;;;;5091191;28;20145;-90
2024/02/25 04:49:17;;;;;;;14.65;7.85;;;0.30;99.90;;;;;;5084835;28;20032;-91
2024/02/25 04:51:44;;;;;;;14.45;7.45;;;0.30;99.90;;;;;;5087282;28;20047;-89
2024/02/25 04:54:13;;;;;;;16.83;8.90;;;0.30;99.90;;;;;;5092602;28;20024;-89
2024/02/25 04:56:43;;;;;;;15.80;8.90;;;0.30;99.90;;;;;;5092916;28;20012;-89
2024/02/25 04:59:10;;;;;;;12.93;6.78;;;0.30;99.90;;;;;;5094578;28;20026;-90
2024/02/25 05:01:45;;;;;;;13.52;8.40;;;0.30;99.90;;;;;;5082570;28;20038;-90
2024/02/25 05:04:11;;;;;;;11.55;6.55;;;0.30;99.90;;;;;;5091831;28;20027;-89
2024/02/25 05:06:37;;;;;;;12.10;7.85;;;0.30;99.90;;;;;;5093402;28;20020;-89
2024/02/25 05:09:03;;;;;;;15.73;7.70;;;0.30;99.90;;;;;;5079336;28;20094;-89
2024/02/25 05:11:30;;;;;;;11.73;7.40;;;0.20;99.90;;;;;;5092801;28;20032;-88
2024/02/25 05:13:57;;;;;;;11.30;7.47;;;0.30;99.90;;;;;;5094750;28;20024;-89
2024/02/25 05:16:22;;;;;;;15.93;8.20;;;0.30;99.90;;;;;;5093195;28;20027;-87
2024/02/25 05:18:48;;;;;;;14.05;7.80;;;0.30;99.90;;;;;;5093399;28;20016;-90
2024/02/25 05:21:14;;;;;;;9.32;6.00;;;0.30;99.90;;;;;;5086695;28;20024;-88
2024/02/25 05:23:40;;;;;;;11.65;6.90;;;0.30;99.90;;;;;;5098787;28;20537;-89
2024/02/25 05:26:06;;;;;;;8.50;4.78;;;0.30;99.90;;;;;;5109734;28;20016;-88
2024/02/25 05:28:32;;;;;;;13.90;6.72;;;0.30;99.90;;;;;;5100729;28;20041;-90
2024/02/25 05:30:58;;;;;;;19.20;7.40;;;0.20;99.90;;;;;;5089481;28;20107;-89
2024/02/25 05:33:24;;;;;;;8.30;4.35;;;0.20;99.90;;;;;;5097435;28;20393;-92
2024/02/25 05:35:49;;;;;;;11.43;7.57;;;0.30;99.90;;;;;;5110949;28;20852;-92
2024/02/25 05:38:16;;;;;;;14.80;6.63;;;0.20;99.90;;;;;;5104144;28;20032;-90
2024/02/25 05:40:43;;;;;;;10.52;5.90;;;0.30;99.90;;;;;;5098562;28;20027;-91
2024/02/25 05:43:09;;;;;;;10.13;5.37;;;0.20;99.90;;;;;;5101117;28;20054;-89
2024/02/25 05:45:35;;;;;;;9.87;7.03;;;0.20;99.90;;;;;;5113994;28;20012;-86
2024/02/25 05:48:02;;;;;;;6.95;5.40;;;0.20;99.90;;;;;;5119342;28;20361;-90
2024/02/25 05:50:28;;;;;;;15.43;8.82;;;0.20;99.90;;;;;;5086200;28;20050;-94
2024/02/25 05:52:53;;;;;;;15.18;8.25;;;0.20;99.90;;;;;;5097040;28;20473;-91
2024/02/25 05:55:19;;;;;;;12.68;7.10;;;0.30;99.90;;;;;;5098732;28;20039;-90
2024/02/25 05:57:45;;;;;;;16.35;9.73;;;0.30;99.90;;;;;;5111075;28;20027;-89
2024/02/25 06:00:13;;;;;;;7.20;5.20;;;0.30;99.90;;;;;;5095251;28;20044;-88
2024/02/25 06:02:40;;;;;;;16.70;8.00;;;0.30;99.90;;;;;;5098256;28;20119;-90
2024/02/25 06:05:09;;;;;;;16.25;7.07;;;0.30;99.90;;;;;;5092436;28;20031;-90
2024/02/25 06:07:35;;;;;;;18.67;8.20;;;0.30;99.90;;;;;;5098944;28;20052;-90
2024/02/25 06:10:02;;;;;;;14.30;6.95;;;0.30;99.90;;;;;;5106490;28;20039;-89
2024/02/25 06:12:31;;;;;;;11.87;6.83;;;0.30;99.90;;;;;;5086088;28;20024;-87
2024/02/25 06:14:57;;;;;;;12.50;6.75;;;0.30;99.90;;;;;;5083257;28;20050;-90
2024/02/25 06:17:23;;;;;;;14.77;8.68;;;0.30;99.90;;;;;;5093647;28;20020;-87
2024/02/25 06:19:48;;;;;;;13.70;6.35;;;0.30;99.90;;;;;;5083647;28;20762;-88
2024/02/25 06:22:14;;;;;;;14.52;8.38;;;0.40;99.90;;;;;;5089350;28;20020;-88
2024/02/25 06:24:40;;;;;;;16.05;8.43;;;0.40;99.90;;;;;;5097568;28;20492;-84
2024/02/25 06:27:06;;;;;;;11.13;6.78;;;0.40;99.90;;;;;;5103365;28;20020;-84
2024/02/25 06:29:32;;;;;;;17.40;7.88;;;0.30;99.90;;;;;;5096084;28;20048;-89
2024/02/25 06:31:59;;;;;;;13.45;7.40;;;0.40;99.90;;;;;;5086383;28;20392;-87
2024/02/25 06:34:25;;;;;;;14.82;6.53;;;0.40;99.90;;;;;;5095301;28;20025;-88
2024/02/25 06:36:51;;;;;;;14.25;8.00;;;0.30;99.90;;;;;;5083442;28;20024;-88
2024/02/25 06:39:16;;;;;;;15.43;7.70;;;0.40;99.90;;;;;;5089687;28;20028;-89
2024/02/25 06:41:42;;;;;;;14.60;7.93;;;0.40;99.90;;;;;;5096343;28;20012;-90
2024/02/25 06:44:08;;;;;;;11.38;6.60;;;0.40;99.90;;;;;;5095457;28;20485;-88
2024/02/25 06:46:39;;;;;;;12.25;6.80;;;0.40;99.90;;;;;;5094960;28;20051;-89
2024/02/25 06:49:07;;;;;;;14.35;7.32;;;0.40;99.90;;;;;;5097985;28;20035;-88
2024/02/25 06:51:33;;;;;;;16.52;7.50;;;0.40;99.90;;;;;;5105326;28;20446;-88
2024/02/25 06:53:59;;;;;;;13.57;6.32;;;0.40;99.90;;;;;;5098061;28;20009;-87
2024/02/25 06:56:25;;;;;;;12.05;6.72;;;0.40;99.90;;;;;;5095493;28;20027;-89
2024/02/25 06:58:51;;;;;;;8.70;4.85;;;0.40;99.90;;;;;;5082234;28;20028;-87
2024/02/25 07:01:17;;;;;;;13.27;7.68;;;0.40;99.90;;;;;;5095510;28;20034;-89
2024/02/25 07:03:43;;;;;;;10.50;7.57;;;0.40;99.90;;;;;;5095733;28;20083;-90
2024/02/25 07:06:13;;;;;;;10.43;7.07;;;0.40;99.90;;;;;;5101115;28;20127;-87
2024/02/25 07:08:40;;;;;;;12.70;6.43;;;0.40;99.90;;;;;;5098475;28;20063;-87
2024/02/25 07:11:19;;;;;;;11.47;5.77;;;0.30;99.90;;;;;;5097503;28;20028;-86
2024/02/25 07:13:48;;;;;;;13.20;7.30;;;0.40;99.90;;;;;;5097107;28;20019;-86
2024/02/25 07:16:14;;;;;;;10.65;7.15;;;0.40;99.90;;;;;;5085809;28;20464;-87
2024/02/25 07:18:41;;;;;;;16.52;7.25;;;0.40;99.90;;;;;;5094994;28;20089;-86
2024/02/25 07:21:08;;;;;;;14.77;8.13;;;0.40;99.90;;;;;;5096933;28;20050;-87
2024/02/25 07:23:39;;;;;;;14.38;8.07;;;0.40;99.90;;;;;;5091127;28;20032;-87
2024/02/25 07:26:06;;;;;;;11.77;6.53;;;0.40;99.90;;;;;;5093343;28;20058;-86
2024/02/25 07:28:32;;;;;;;10.65;6.57;;;0.40;99.90;;;;;;5104681;28;20031;-86
2024/02/25 07:31:01;;;;;;;15.38;6.65;;;0.40;99.90;;;;;;5106674;28;20024;-87
2024/02/25 07:33:27;;;;;;;13.02;6.75;;;0.40;99.90;;;;;;5093165;28;20024;-86
2024/02/25 07:35:53;;;;;;;13.75;7.15;;;0.40;99.90;;;;;;5093271;28;20032;-86
2024/02/25 07:38:19;;;;;;;9.68;4.72;;;0.40;99.90;;;;;;5091829;28;20022;-87
2024/02/25 07:40:45;;;;;;;12.57;5.82;;;0.50;99.90;;;;;;5088315;28;20028;-85
2024/02/25 07:43:11;;;;;;;10.40;7.80;;;0.50;99.90;;;;;;5094287;28;20024;-86
2024/02/25 07:45:37;;;;;;;9.00;5.35;;;0.60;99.90;;;;;;5100806;28;20452;-87
2024/02/25 07:48:03;;;;;;;12.02;7.22;;;0.60;99.90;;;;;;5103405;28;20073;-86
2024/02/25 07:50:30;;;;;;;9.50;5.32;;;0.60;99.90;;;;;;5094818;28;20135;-88
2024/02/25 07:52:56;;;;;;;10.95;6.85;;;0.60;99.90;;;;;;5093613;28;20027;-86
2024/02/25 07:55:22;;;;;;;9.10;5.20;;;0.50;99.90;;;;;;5091006;28;20554;-84
2024/02/25 07:57:48;;;;;;;10.20;6.93;;;0.50;99.90;;;;;;5079767;28;20025;-88
2024/02/25 08:00:14;;;;;;;9.70;6.50;;;0.50;99.90;;;;;;5073813;28;20024;-86
2024/02/25 08:02:40;;;;;;;11.32;5.80;;;0.40;99.90;;;;;;5087554;28;20028;-86
2024/02/25 08:05:09;;;;;;;13.68;6.13;;;0.40;99.90;;;;;;5081447;28;20370;-87
2024/02/25 08:07:35;;;;;;;7.88;4.93;;;0.40;99.90;;;;;;5092739;28;20906;-87
2024/02/25 08:10:02;;;;;;;11.02;6.55;;;0.40;99.90;;;;;;5096428;28;20044;-86
2024/02/25 08:12:28;;;;;;;11.45;5.85;;;0.30;99.90;;;;;;5040592;28;20036;-86
2024/02/25 08:14:55;;;;;;;14.80;6.28;;;0.30;99.90;;;;;;5048125;28;20033;-89
2024/02/25 08:17:21;;;;;;;7.13;4.90;;;0.40;99.90;;;;;;5055281;28;20183;-86
2024/02/25 08:19:47;;;;;;;7.47;4.85;;;0.40;99.90;;;;;;5060598;28;20036;-87
2024/02/25 08:22:14;;;;;;;13.30;7.10;;;0.40;99.90;;;;;;5067902;28;20140;-85
2024/02/25 08:24:40;;;;;;;14.52;7.32;;;0.40;99.90;;;;;;5057310;28;20104;-85
2024/02/25 08:27:06;;;;;;;9.82;6.25;;;0.40;99.90;;;;;;5056369;28;20064;-86
2024/02/25 08:29:32;;;;;;;21.30;5.75;;;0.40;99.90;;;;;;5050964;28;20025;-87
2024/02/25 08:31:57;;;;;;;11.10;5.30;;;0.40;99.90;;;;;;5052515;28;20468;-87
2024/02/25 08:34:24;;;;;;;14.43;7.32;;;0.40;99.90;;;;;;5055149;28;20029;-88
2024/02/25 08:36:50;;;;;;;10.65;6.85;;;0.40;99.90;;;;;;5055993;28;20071;-86
2024/02/25 08:39:17;;;;;;;14.13;7.28;;;0.40;99.90;;;;;;5055763;28;20033;-86
2024/02/25 08:41:43;;;;;;;5.60;4.03;;;0.40;99.90;;;;;;5056282;28;20051;-88
2024/02/25 08:44:09;;;;;;;9.07;3.92;;;0.40;99.90;;;;;;5078376;28;20045;-87
2024/02/25 08:46:35;;;;;;;10.27;6.78;;;0.30;99.90;;;;;;5042108;28;20017;-90
2024/02/25 08:49:01;;;;;;;10.65;5.65;;;0.30;99.90;;;;;;5063258;28;20044;-88
2024/02/25 08:51:34;;;;;;;8.48;4.93;;;0.30;99.90;;;;;;5087121;28;20020;-89
2024/02/25 08:54:00;;;;;;;6.75;3.13;;;0.40;99.90;;;;;;5105377;28;20024;-91
2024/02/25 08:56:26;;;;;;;7.28;5.20;;;0.40;99.90;;;;;;5104830;28;20016;-91
2024/02/25 08:58:52;;;;;;;11.55;5.68;;;0.40;99.90;;;;;;5087840;28;20013;-91
2024/02/25 09:01:18;;;;;;;12.45;5.50;;;0.40;99.90;;;;;;5088372;28;20480;-89
2024/02/25 09:03:44;;;;;;;7.07;4.63;;;0.40;99.90;;;;;;5102101;28;20059;-91
2024/02/25 09:06:09;;;;;;;7.45;4.57;;;0.40;99.90;;;;;;5100340;28;20084;-91
2024/02/25 09:08:36;;;;;;;11.60;6.20;;;0.40;99.90;;;;;;5104916;28;20386;-91
2024/02/25 09:11:02;;;;;;;12.10;6.53;;;0.40;99.90;;;;;;5107482;28;20032;-90
2024/02/25 09:13:28;;;;;;;5.32;3.30;;;0.50;99.90;;;;;;5083182;28;20385;-89
2024/02/25 09:15:54;;;;;;;11.13;5.70;;;0.50;99.90;;;;;;5091179;28;20039;-88
2024/02/25 09:18:19;;;;;;;9.40;3.60;;;0.50;99.90;;;;;;5093473;28;20020;-90
2024/02/25 09:20:45;;;;;;;11.02;5.55;;;0.60;99.90;;;;;;5097539;28;20020;-90
2024/02/25 09:23:11;;;;;;;8.60;4.82;;;0.60;99.90;;;;;;5093199;28;20028;-91
2024/02/25 09:25:37;;;;;;;7.60;4.65;;;0.70;99.90;;;;;;5097949;28;20031;-90
2024/02/25 09:28:04;;;;;;;7.68;4.78;;;0.70;99.90;;;;;;5099151;28;20100;-91
2024/02/25 09:30:31;;;;;;;12.55;6.00;;;0.70;99.90;;;;;;5089175;28;20032;-92
2024/02/25 09:32:57;;;;;;;5.55;3.65;;;0.80;99.90;;;;;;5096770;28;20012;-91
2024/02/25 09:35:24;;;;;;;17.20;7.45;;;0.90;99.90;;;;;;5087488;28;20028;-92
2024/02/25 09:37:50;;;;;;;11.18;4.70;;;1.00;99.90;;;;;;5102594;28;20027;-91
2024/02/25 09:40:16;;;;;;;12.50;6.90;;;1.20;99.90;;;;;;5102872;28;20046;-92
2024/02/25 09:42:46;;;;;;;9.65;6.95;;;1.10;99.90;;;;;;5103133;28;20077;-91
2024/02/25 09:45:20;;;;;;;10.18;7.05;;;1.20;99.90;;;;;;5090271;28;20016;-89
2024/02/25 09:47:46;;;;;;;11.13;5.97;;;1.20;99.90;;;;;;5105164;28;20035;-92
2024/02/25 09:50:14;;;;;;;12.93;7.07;;;1.30;99.90;;;;;;5107002;28;20067;-93
2024/02/25 09:52:40;;;;;;;8.88;5.28;;;1.30;99.90;;;;;;5115741;28;20025;-92
2024/02/25 09:55:10;;;;;;;10.52;5.80;;;1.20;99.90;;;;;;5115504;28;20048;-91
2024/02/25 09:57:36;;;;;;;14.00;6.38;;;1.20;99.90;;;;;;5109196;28;20081;-94
2024/02/25 10:00:02;;;;;;;775.35;162.95;;;1.10;99.90;;;;;;5096063;28;20427;-82
2024/02/25 10:02:30;;;;;;;12.98;6.63;;;1.10;99.90;;;;;;5093342;28;20031;-83
2024/02/25 10:04:56;;;;;;;;;;;1.10;99.90;;;;;;5093822;28;20023;-83
2024/02/25 10:07:22;;;;;;;11.75;6.82;;;1.00;99.90;;;;;;5093509;28;19904;-80
2024/02/25 10:09:49;;;;;;;17.02;5.75;;;0.90;99.90;;;;;;5095071;28;20028;-81
2024/02/25 10:12:15;;;;;;;;;;;1.00;99.90;;;;;;5094503;28;20020;-80
2024/02/25 10:14:42;;;;;;;8.82;4.72;;;0.90;99.90;;;;;;5085266;28;19918;-88
2024/02/25 10:17:09;;;;;;;12.88;5.32;;;0.80;99.90;;;;;;5080681;28;20526;-83
2024/02/25 10:19:35;;;;;;;11.25;6.10;;;0.80;99.90;;;;;;5092342;28;20495;-85
2024/02/25 10:22:11;;;;;;;11.98;5.35;;;0.70;99.90;;;;;;5095031;28;20107;-82
2024/02/25 10:24:39;;;;;;;9.27;6.28;;;0.70;99.90;;;;;;5094757;28;20020;-83
2024/02/25 10:27:12;;;;;;;7.70;4.55;;;0.70;99.90;;;;;;5094330;28;20016;-82
2024/02/25 10:29:55;;;;;;;12.93;6.40;;;0.70;99.90;;;;;;5093137;28;20040;-86
2024/02/25 10:32:28;;;;;;;8.30;3.92;;;0.70;99.90;;;;;;5094923;28;20107;-88
2024/02/25 10:34:56;;;;;;;9.65;5.18;;;0.80;99.90;;;;;;5095096;28;20023;-90
2024/02/25 10:37:22;;;;;;;;;;;0.80;99.90;;;;;;5098983;28;20094;-89
2024/02/25 10:40:07;;;;;;;7.77;5.00;;;0.80;99.90;;;;;;5096526;28;20289;-87
2024/02/25 10:42:47;;;;;;;14.98;6.90;;;0.80;99.90;;;;;;5101341;28;20024;-88
2024/02/25 10:45:16;;;;;;;6.68;3.70;;;0.90;99.90;;;;;;5082399;28;20032;-87
2024/02/25 10:47:44;;;;;;;10.93;6.35;;;0.90;99.90;;;;;;5086071;28;20439;-84
2024/02/25 10:50:10;;;;;;;11.35;5.70;;;0.90;99.90;;;;;;5095310;28;20054;-85
2024/02/25 10:52:36;;;;;;;19.00;8.32;;;0.90;99.90;;;;;;5083285;28;20055;-83
2024/02/25 10:55:03;;;;;;;13.88;5.70;;;0.90;99.90;;;;;;5090981;28;20028;-82
2024/02/25 10:57:31;;;;;;;5.25;4.00;;;0.90;99.90;;;;;;5110894;28;20482;-85
2024/02/25 10:59:57;;;;;;;8.40;5.30;;;0.90;99.90;;;;;;5092644;28;20052;-82
2024/02/25 11:02:26;;;;;;;16.25;6.40;;;0.90;99.90;;;;;;5094057;28;20040;-82
2024/02/25 11:04:52;;;;;;;10.95;6.45;;;0.90;99.90;;;;;;5086422;28;20498;-84
2024/02/25 11:07:19;;;;;;;10.70;6.82;;;0.90;99.90;;;;;;5093691;28;20467;-82
2024/02/25 11:09:48;;;;;;;11.70;5.47;;;0.90;99.90;;;;;;5081711;28;20032;-84
2024/02/25 11:12:25;;;;;;;7.35;3.97;;;0.90;99.90;;;;;;5085031;28;20028;-85
2024/02/25 11:15:04;;;;;;;11.40;6.20;;;1.00;99.90;;;;;;5096837;28;20038;-83
2024/02/25 11:17:35;;;;;;;12.80;6.68;;;1.00;99.90;;;;;;5096121;28;20031;-85
2024/02/25 11:20:09;;;;;;;8.52;5.22;;;1.00;99.90;;;;;;5096414;28;20071;-84
2024/02/25 11:22:44;;;;;;;12.70;6.80;;;1.00;99.90;;;;;;5092213;28;20073;-85
2024/02/25 11:25:33;;;;;;;10.15;5.40;;;1.10;99.90;;;;;;5092701;28;20038;-83
2024/02/25 11:28:01;;;;;;;11.70;5.25;;;1.10;99.90;;;;;;5076618;28;20016;-84
2024/02/25 11:30:44;;;;;;;;;;;1.00;99.90;;;;;;5091497;28;20044;-83
2024/02/25 11:33:39;;;;;;;7.53;5.18;;;1.00;99.90;;;;;;5093188;28;19908;-84
2024/02/25 11:36:13;;;;;;;11.75;5.82;;;1.10;99.90;;;;;;5091276;28;20043;-84
2024/02/25 11:38:44;;;;;;;8.02;4.45;;;1.10;99.90;;;;;;5083655;28;20020;-82
2024/02/25 11:41:13;;;;;;;8.25;4.80;;;1.10;99.90;;;;;;5103720;28;20027;-85
2024/02/25 11:43:42;;;;;;;6.90;4.57;;;1.00;99.90;;;;;;5098734;28;20020;-88
2024/02/25 11:46:08;;;;;;;8.85;5.47;;;1.00;99.90;;;;;;5105881;28;20024;-87
2024/02/25 11:48:35;;;;;;;9.00;5.27;;;1.00;99.90;;;;;;5102138;28;20028;-89
2024/02/25 11:51:02;;;;;;;5.80;4.63;;;1.10;99.90;;;;;;5088518;28;20024;-87
2024/02/25 11:53:28;;;;;;;8.95;4.60;;;1.10;99.90;;;;;;5094381;28;20027;-84
2024/02/25 11:55:55;;;;;;;7.05;3.55;;;1.10;99.90;;;;;;5096718;28;20032;-86
2024/02/25 11:58:23;;;;;;;10.85;5.63;;;1.20;99.90;;;;;;5094813;28;20040;-84
2024/02/25 12:00:50;;;;;;;6.70;3.47;;;1.20;99.90;;;;;;5096457;28;20035;-86
2024/02/25 12:03:17;;;;;;;10.63;4.47;;;1.30;99.90;;;;;;5094956;28;20024;-83
2024/02/25 12:05:43;;;;;;;5.20;2.90;;;1.30;99.90;;;;;;5095538;28;20024;-83
2024/02/25 12:08:14;;;;;;;9.27;3.97;;;1.30;99.90;;;;;;5089708;28;20047;-85
2024/02/25 12:10:40;;;;;;;6.05;4.00;;;1.30;99.90;;;;;;5090075;28;20412;-86
2024/02/25 12:13:08;;;;;;;7.07;4.27;;;1.30;99.90;;;;;;5094578;28;20012;-85
2024/02/25 12:15:38;;;;;;;9.80;5.70;;;1.30;99.90;;;;;;5083515;28;20032;-83
2024/02/25 12:18:05;;;;;;;7.90;4.63;;;1.40;99.90;;;;;;5085025;28;20016;-89
2024/02/25 12:20:31;;;;;;;8.60;5.20;;;1.40;99.90;;;;;;5095602;28;20023;-84
2024/02/25 12:22:57;;;;;;;8.85;3.65;;;1.50;99.90;;;;;;5080524;28;20093;-87
2024/02/25 12:25:23;;;;;;;8.50;3.80;;;1.50;99.90;;;;;;5088054;28;20099;-85
2024/02/25 12:27:50;;;;;;;10.90;4.82;;;1.60;99.90;;;;;;5095635;28;20036;-82
2024/02/25 12:30:20;;;;;;;6.37;2.83;;;1.60;99.90;;;;;;5096181;28;20035;-83
2024/02/25 12:32:46;;;;;;;9.32;5.45;;;1.60;99.90;;;;;;5096977;28;20024;-85
2024/02/25 12:35:12;;;;;;;14.68;7.38;;;1.60;99.90;;;;;;5098856;28;20043;-87
2024/02/25 12:37:37;;;;;;;8.63;4.47;;;1.60;99.90;;;;;;5086752;28;20050;-87
2024/02/25 12:40:08;;;;;;;9.57;5.05;;;1.70;99.90;;;;;;5094973;28;20020;-85
2024/02/25 12:42:35;;;;;;;7.75;5.32;;;1.70;99.90;;;;;;5097046;28;20024;-87
2024/02/25 12:45:00;;;;;;;7.05;3.95;;;1.60;99.90;;;;;;5101035;28;20016;-83
2024/02/25 12:47:26;;;;;;;5.15;3.67;;;1.50;99.90;;;;;;5100662;28;20028;-85
2024/02/25 12:49:52;;;;;;;8.02;4.53;;;1.40;99.90;;;;;;5091094;28;20033;-87
2024/02/25 12:52:18;;;;;;;6.10;3.75;;;1.40;99.90;;;;;;5099244;28;20033;-86